Time;durP1;ratioP1;P1;durP2;ratioP2;P2;SDS_P1;SDS_P2;PMS_P1;PMS_P2;Temp;Humidity;BMP_temperature;BMP_pressure;BME280_temperature;BME280_humidity;BME280_pressure;Samples;Min_cycle;Max_cycle;Signal;HPM_P1;HPM_P2
2021/05/23 00:00:40;;;;;;;3.25;2.92;;;9.40;99.90;;;;;;4929135;28;20051;-64
2021/05/23 00:03:10;;;;;;;8.65;3.28;;;9.40;99.90;;;;;;4928560;28;20070;-63
2021/05/23 00:05:39;;;;;;;3.90;3.45;;;9.40;99.90;;;;;;4928525;28;20052;-63
2021/05/23 00:08:18;;;;;;;6.10;3.35;;;9.40;99.90;;;;;;4926115;28;20437;-63
2021/05/23 00:10:49;;;;;;;5.72;2.97;;;9.30;99.90;;;;;;4930081;28;20055;-64
2021/05/23 00:13:21;;;;;;;5.45;3.70;;;9.30;99.90;;;;;;4928769;28;20122;-63
2021/05/23 00:16:02;;;;;;;5.72;3.60;;;9.40;99.90;;;;;;4926610;28;20126;-64
2021/05/23 00:18:33;;;;;;;4.88;3.70;;;9.30;99.90;;;;;;4928897;28;20059;-63
2021/05/23 00:21:01;;;;;;;4.28;3.97;;;9.30;99.90;;;;;;4929165;28;21490;-64
2021/05/23 00:23:28;;;;;;;6.05;3.90;;;9.30;99.90;;;;;;4928207;28;20051;-63
2021/05/23 00:25:55;;;;;;;4.80;3.88;;;9.30;99.90;;;;;;4926306;28;20186;-64
2021/05/23 00:28:23;;;;;;;3.70;3.35;;;9.30;99.90;;;;;;4928322;28;20095;-63
2021/05/23 00:30:50;;;;;;;6.82;5.57;;;9.30;99.90;;;;;;4926751;28;20506;-63
2021/05/23 00:33:18;;;;;;;6.82;4.63;;;9.30;99.90;;;;;;4926470;28;20054;-64
2021/05/23 00:35:45;;;;;;;12.32;4.85;;;9.30;99.90;;;;;;4925789;28;20734;-64
2021/05/23 00:38:12;;;;;;;9.90;4.90;;;9.40;99.90;;;;;;4927251;28;20150;-63
2021/05/23 00:40:40;;;;;;;6.65;3.85;;;9.40;99.90;;;;;;4927994;28;20471;-63
2021/05/23 00:43:10;;;;;;;6.03;5.22;;;9.40;99.90;;;;;;4926248;28;20051;-64
2021/05/23 00:45:38;;;;;;;9.68;4.18;;;9.40;99.90;;;;;;4923177;28;20562;-63
2021/05/23 00:48:06;;;;;;;6.38;4.10;;;9.40;99.90;;;;;;4915941;28;20406;-63
2021/05/23 00:50:35;;;;;;;4.65;3.88;;;9.50;99.90;;;;;;4928662;28;20062;-63
2021/05/23 00:53:03;;;;;;;6.53;4.40;;;9.50;99.90;;;;;;4930998;28;20170;-64
2021/05/23 00:55:31;;;;;;;5.10;3.42;;;9.50;99.90;;;;;;4929737;28;20137;-64
2021/05/23 00:57:58;;;;;;;3.75;3.45;;;9.60;99.90;;;;;;4926394;28;20059;-64
2021/05/23 01:00:44;;;;;;;4.10;3.67;;;9.60;99.90;;;;;;4927778;28;20055;-63
2021/05/23 01:03:27;;;;;;;5.35;3.45;;;9.70;99.90;;;;;;4929261;28;20421;-63
2021/05/23 01:06:08;;;;;;;8.75;4.10;;;9.70;99.90;;;;;;4927439;28;20111;-64
2021/05/23 01:08:37;;;;;;;7.75;3.67;;;9.70;99.90;;;;;;4928518;28;20048;-63
2021/05/23 01:11:28;;;;;;;10.75;4.72;;;9.70;99.90;;;;;;4927997;28;20051;-64
2021/05/23 01:13:58;;;;;;;3.65;3.35;;;9.70;99.90;;;;;;4928132;28;20082;-64
2021/05/23 01:16:41;;;;;;;5.63;4.68;;;9.70;99.90;;;;;;4927250;28;20055;-64
2021/05/23 01:19:16;;;;;;;5.45;3.47;;;9.70;99.90;;;;;;4928669;28;20335;-64
2021/05/23 01:21:49;;;;;;;3.13;2.83;;;9.70;99.90;;;;;;4926700;28;20059;-64
2021/05/23 01:24:48;;;;;;;6.00;2.80;;;9.70;99.90;;;;;;4932126;28;20474;-63
2021/05/23 01:27:26;;;;;;;3.88;2.30;;;9.80;99.90;;;;;;4932483;28;20120;-63
2021/05/23 01:29:53;;;;;;;9.50;3.35;;;9.70;99.90;;;;;;4932027;28;20499;-63
2021/05/23 01:32:21;;;;;;;6.07;2.72;;;9.70;99.90;;;;;;4932767;28;20442;-63
2021/05/23 01:34:48;;;;;;;5.50;2.25;;;9.70;99.90;;;;;;4931336;28;21083;-63
2021/05/23 01:37:16;;;;;;;2.63;2.35;;;9.70;99.90;;;;;;4929240;28;20103;-63
2021/05/23 01:39:43;;;;;;;2.95;2.65;;;9.70;99.90;;;;;;4930247;28;20138;-64
2021/05/23 01:42:11;;;;;;;2.75;2.40;;;9.70;99.90;;;;;;4931318;28;20107;-63
2021/05/23 01:44:38;;;;;;;4.85;2.50;;;9.70;99.90;;;;;;4932445;28;21654;-63
2021/05/23 01:47:05;;;;;;;2.33;1.85;;;9.70;99.90;;;;;;4930492;28;20576;-63
2021/05/23 01:49:32;;;;;;;2.42;1.98;;;9.70;99.90;;;;;;4932549;28;20070;-63
2021/05/23 01:51:59;;;;;;;3.42;2.10;;;9.70;99.90;;;;;;4929618;28;20117;-63
2021/05/23 01:54:26;;;;;;;4.07;1.95;;;9.70;99.90;;;;;;4931898;28;20058;-63
2021/05/23 01:56:53;;;;;;;6.07;2.47;;;9.70;99.90;;;;;;4931250;28;20062;-64
2021/05/23 01:59:20;;;;;;;3.75;1.70;;;9.70;99.90;;;;;;4931493;28;20105;-63
2021/05/23 02:01:47;;;;;;;6.25;1.88;;;9.70;99.90;;;;;;4928212;28;20063;-63
2021/05/23 02:04:14;;;;;;;2.78;1.58;;;9.70;99.90;;;;;;4931975;28;20684;-63
2021/05/23 02:06:41;;;;;;;3.17;2.35;;;9.70;99.90;;;;;;4928902;28;20114;-63
2021/05/23 02:09:08;;;;;;;2.67;1.52;;;9.70;99.90;;;;;;4931034;28;20059;-63
2021/05/23 02:11:35;;;;;;;2.08;1.45;;;9.70;99.90;;;;;;4930759;28;21421;-63
2021/05/23 02:14:02;;;;;;;3.58;1.40;;;9.70;99.90;;;;;;4933195;28;20146;-63
2021/05/23 02:16:32;;;;;;;1.83;1.58;;;9.70;99.90;;;;;;4939478;28;20054;-63
2021/05/23 02:18:59;;;;;;;2.50;1.70;;;9.70;99.90;;;;;;4940882;28;20102;-63
2021/05/23 02:21:26;;;;;;;2.33;1.40;;;9.70;99.90;;;;;;4936676;28;20067;-63
2021/05/23 02:23:55;;;;;;;3.60;1.50;;;9.70;99.90;;;;;;4934041;28;20433;-63
2021/05/23 02:26:23;;;;;;;2.75;2.13;;;9.70;99.90;;;;;;4934837;28;20146;-64
2021/05/23 02:28:51;;;;;;;3.33;1.58;;;9.70;99.90;;;;;;4934803;28;20086;-63
2021/05/23 02:31:18;;;;;;;2.50;1.75;;;9.60;99.90;;;;;;4932810;28;20047;-63
2021/05/23 02:33:45;;;;;;;4.22;1.98;;;9.60;99.90;;;;;;4934170;28;20058;-63
2021/05/23 02:36:12;;;;;;;4.18;1.95;;;9.60;99.90;;;;;;4935728;28;20066;-63
2021/05/23 02:38:39;;;;;;;3.00;1.70;;;9.60;99.90;;;;;;4937562;28;21478;-63
2021/05/23 02:41:06;;;;;;;1.63;1.52;;;9.60;99.90;;;;;;4932412;28;20095;-63
2021/05/23 02:43:33;;;;;;;2.60;1.73;;;9.60;99.90;;;;;;4932609;28;20151;-63
2021/05/23 02:46:03;;;;;;;2.28;1.70;;;9.60;99.90;;;;;;4929353;28;20059;-63
2021/05/23 02:48:30;;;;;;;1.40;1.30;;;9.60;99.90;;;;;;4948188;28;21029;-63
2021/05/23 02:51:01;;;;;;;2.20;1.98;;;9.60;99.90;;;;;;4931902;28;20571;-63
2021/05/23 02:53:29;;;;;;;4.32;1.52;;;9.70;99.90;;;;;;4932036;28;20059;-63
2021/05/23 02:55:56;;;;;;;1.70;1.60;;;9.70;99.90;;;;;;4930231;28;20051;-63
2021/05/23 02:58:23;;;;;;;4.28;1.88;;;9.70;99.90;;;;;;4931933;28;20095;-63
2021/05/23 03:00:50;;;;;;;2.20;2.00;;;9.70;99.90;;;;;;4931702;28;20165;-63
2021/05/23 03:03:17;;;;;;;2.50;1.52;;;9.70;99.90;;;;;;4928883;28;20115;-63
2021/05/23 03:05:45;;;;;;;2.13;1.50;;;9.70;99.90;;;;;;4929989;28;20051;-63
2021/05/23 03:08:13;;;;;;;1.95;1.35;;;9.70;99.90;;;;;;4929987;28;20067;-63
2021/05/23 03:10:43;;;;;;;2.08;1.90;;;9.70;99.90;;;;;;4925891;28;20505;-63
2021/05/23 03:13:11;;;;;;;3.10;1.55;;;9.70;99.90;;;;;;4914575;28;20067;-63
2021/05/23 03:15:38;;;;;;;2.17;1.73;;;9.80;99.90;;;;;;4931249;28;20138;-63
2021/05/23 03:18:06;;;;;;;2.47;1.33;;;9.80;99.90;;;;;;4928106;28;20122;-63
2021/05/23 03:20:36;;;;;;;1.70;1.60;;;9.80;99.90;;;;;;4931299;28;20136;-63
2021/05/23 03:23:03;;;;;;;2.25;1.73;;;9.80;99.90;;;;;;4929802;28;20062;-63
2021/05/23 03:25:31;;;;;;;3.05;2.20;;;9.80;99.90;;;;;;4932142;28;20058;-63
2021/05/23 03:27:59;;;;;;;5.50;2.20;;;9.90;99.90;;;;;;4927933;28;20062;-63
2021/05/23 03:30:33;;;;;;;3.30;2.67;;;9.90;99.90;;;;;;4931515;28;20059;-63
2021/05/23 03:33:00;;;;;;;5.53;2.30;;;9.90;99.90;;;;;;4929969;28;20062;-63
2021/05/23 03:35:27;;;;;;;2.60;1.75;;;9.90;99.90;;;;;;4931161;28;20441;-63
2021/05/23 03:37:56;;;;;;;6.80;2.13;;;10.00;99.90;;;;;;4919457;29;20059;-63
2021/05/23 03:40:23;;;;;;;2.72;1.73;;;10.00;99.90;;;;;;4928075;28;20118;-63
2021/05/23 03:42:51;;;;;;;2.75;2.22;;;10.00;99.90;;;;;;4929681;28;20804;-63
2021/05/23 03:45:20;;;;;;;2.03;1.88;;;10.00;99.90;;;;;;4929501;28;20127;-64
2021/05/23 03:47:47;;;;;;;3.10;1.98;;;10.10;99.90;;;;;;4929193;28;20486;-63
2021/05/23 03:50:20;;;;;;;2.78;1.60;;;10.10;99.90;;;;;;4931143;28;20055;-63
2021/05/23 03:52:53;;;;;;;3.72;1.92;;;10.10;99.90;;;;;;4929330;28;20493;-63
2021/05/23 03:55:21;;;;;;;3.05;1.60;;;10.10;99.90;;;;;;4930327;28;20088;-63
2021/05/23 03:57:48;;;;;;;3.35;2.17;;;10.10;99.90;;;;;;4928329;28;20043;-64
2021/05/23 04:00:18;;;;;;;3.33;1.77;;;10.10;99.90;;;;;;4929766;28;20159;-63
2021/05/23 04:02:48;;;;;;;2.20;2.00;;;10.10;99.90;;;;;;4930325;28;20150;-63
2021/05/23 04:05:15;;;;;;;2.47;1.70;;;10.10;99.90;;;;;;4931631;28;20098;-63
2021/05/23 04:07:43;;;;;;;1.92;1.45;;;10.10;99.90;;;;;;4927896;28;20376;-63
2021/05/23 04:10:13;;;;;;;4.75;2.03;;;10.00;99.90;;;;;;4930454;28;20082;-64
2021/05/23 04:12:43;;;;;;;2.42;1.98;;;10.00;99.90;;;;;;4930097;28;20071;-64
2021/05/23 04:15:11;;;;;;;4.57;1.63;;;10.00;99.90;;;;;;4931403;28;20117;-63
2021/05/23 04:17:41;;;;;;;3.13;1.88;;;10.00;99.90;;;;;;4930155;28;20102;-63
2021/05/23 04:20:10;;;;;;;4.30;1.80;;;10.00;99.90;;;;;;4929683;28;20100;-63
2021/05/23 04:22:38;;;;;;;3.22;2.17;;;10.00;99.90;;;;;;4929454;28;20055;-63
2021/05/23 04:25:09;;;;;;;6.70;2.28;;;10.10;99.90;;;;;;4931191;29;20170;-63
2021/05/23 04:27:36;;;;;;;2.47;1.90;;;10.10;99.90;;;;;;4929734;28;20127;-63
2021/05/23 04:30:07;;;;;;;4.95;2.05;;;10.10;99.90;;;;;;4930078;28;20114;-63
2021/05/23 04:32:34;;;;;;;7.85;1.67;;;10.10;99.90;;;;;;4929429;28;20049;-63
2021/05/23 04:35:01;;;;;;;3.58;3.25;;;10.10;99.90;;;;;;4930893;28;20121;-63
2021/05/23 04:37:28;;;;;;;2.03;1.77;;;10.10;99.90;;;;;;4929783;28;20142;-63
2021/05/23 04:39:55;;;;;;;1.75;1.65;;;10.10;99.90;;;;;;4929407;28;20122;-63
2021/05/23 04:42:22;;;;;;;2.35;2.22;;;10.20;99.90;;;;;;4930177;28;20418;-63
2021/05/23 04:45:11;;;;;;;3.00;1.60;;;10.20;99.90;;;;;;4931288;28;21584;-63
2021/05/23 04:47:38;;;;;;;3.17;1.77;;;10.30;99.90;;;;;;4926714;28;20236;-63
2021/05/23 04:50:06;;;;;;;1.88;1.70;;;10.30;99.90;;;;;;4928446;28;20540;-63
2021/05/23 04:52:33;;;;;;;2.80;1.77;;;10.30;99.90;;;;;;4929304;28;20102;-63
2021/05/23 04:55:00;;;;;;;2.53;1.92;;;10.40;99.90;;;;;;4930512;28;20055;-63
2021/05/23 04:57:27;;;;;;;3.15;1.75;;;10.50;99.90;;;;;;4930173;28;20062;-63
2021/05/23 04:59:54;;;;;;;3.65;1.50;;;10.50;99.90;;;;;;4932525;28;20086;-63
2021/05/23 05:02:22;;;;;;;2.33;1.40;;;10.50;99.90;;;;;;4932609;28;20051;-63
2021/05/23 05:04:49;;;;;;;2.95;1.50;;;10.50;99.90;;;;;;4934195;28;20062;-64
2021/05/23 05:07:16;;;;;;;5.07;1.80;;;10.60;99.90;;;;;;4934347;28;21334;-63
2021/05/23 05:09:43;;;;;;;1.60;1.50;;;10.60;99.90;;;;;;4934830;28;20155;-64
2021/05/23 05:12:10;;;;;;;2.85;1.70;;;10.70;99.90;;;;;;4933063;28;20055;-63
2021/05/23 05:14:37;;;;;;;1.52;1.42;;;10.70;99.90;;;;;;4935333;28;20058;-63
2021/05/23 05:17:04;;;;;;;4.35;1.73;;;10.80;99.90;;;;;;4932989;28;20114;-63
2021/05/23 05:19:31;;;;;;;3.30;1.48;;;10.80;99.90;;;;;;4933050;28;20727;-63
2021/05/23 05:21:59;;;;;;;3.80;1.38;;;10.90;99.90;;;;;;4930782;28;20074;-64
2021/05/23 05:24:26;;;;;;;2.22;2.03;;;11.00;99.90;;;;;;4933831;28;20059;-63
2021/05/23 05:26:52;;;;;;;2.67;1.23;;;11.00;99.90;;;;;;4932097;28;20241;-63
2021/05/23 05:29:21;;;;;;;1.60;0.85;;;11.00;99.90;;;;;;4933614;28;20501;-63
2021/05/23 05:31:49;;;;;;;1.40;1.30;;;11.10;99.90;;;;;;4930621;28;20078;-63
2021/05/23 05:34:16;;;;;;;2.33;1.45;;;11.10;99.90;;;;;;4934878;28;20048;-63
2021/05/23 05:36:43;;;;;;;3.70;2.15;;;11.20;99.90;;;;;;4931992;28;20091;-63
2021/05/23 05:39:10;;;;;;;1.70;1.10;;;11.30;99.90;;;;;;4934001;28;20094;-63
2021/05/23 05:41:37;;;;;;;3.60;1.83;;;11.30;99.90;;;;;;4932905;28;20104;-64
2021/05/23 05:44:05;;;;;;;2.83;1.65;;;11.30;99.90;;;;;;4931106;28;20062;-63
2021/05/23 05:46:32;;;;;;;5.78;1.73;;;11.40;99.90;;;;;;4932256;28;20052;-63
2021/05/23 05:48:59;;;;;;;2.15;1.65;;;11.40;99.90;;;;;;4934109;28;20067;-64
2021/05/23 05:51:26;;;;;;;6.03;2.35;;;11.50;99.90;;;;;;4930576;28;20508;-63
2021/05/23 05:53:52;;;;;;;2.85;2.05;;;11.60;99.90;;;;;;4945195;28;20776;-63
2021/05/23 05:56:20;;;;;;;2.88;1.30;;;11.60;99.90;;;;;;4931412;28;20058;-64
2021/05/23 05:58:47;;;;;;;6.32;1.92;;;11.60;99.90;;;;;;4932302;28;20541;-63
2021/05/23 06:01:14;;;;;;;4.35;1.70;;;11.70;99.90;;;;;;4931572;29;20832;-63
2021/05/23 06:03:40;;;;;;;4.60;0.98;;;11.80;99.90;;;;;;4932680;28;20051;-64
2021/05/23 06:06:08;;;;;;;1.83;1.25;;;11.90;99.90;;;;;;4927356;28;20142;-64
2021/05/23 06:08:35;;;;;;;3.45;1.58;;;11.90;99.90;;;;;;4931586;28;20556;-64
2021/05/23 06:11:05;;;;;;;;;;;12.00;99.90;;;;;;1411768;28;10023327;-63
2021/05/23 06:13:32;;;;;;;6.07;1.20;;;12.10;99.90;;;;;;4918522;28;20343;-63
2021/05/23 06:16:00;;;;;;;2.00;1.23;;;12.20;99.90;;;;;;4929272;28;21234;-63
2021/05/23 06:18:27;;;;;;;2.15;1.15;;;12.40;99.90;;;;;;4935042;28;20051;-63
2021/05/23 06:20:55;;;;;;;1.73;1.20;;;12.40;99.90;;;;;;4935910;28;20062;-64
2021/05/23 06:23:22;;;;;;;2.50;1.30;;;12.50;99.90;;;;;;4933303;28;20229;-64
2021/05/23 06:25:49;;;;;;;5.55;1.67;;;12.60;99.90;;;;;;4930872;28;20055;-64
2021/05/23 06:28:16;;;;;;;3.30;1.10;;;12.80;99.90;;;;;;4933258;28;20051;-64
2021/05/23 06:30:43;;;;;;;4.15;1.80;;;13.00;99.90;;;;;;4931875;28;20118;-64
2021/05/23 06:33:10;;;;;;;4.75;1.25;;;13.20;99.90;;;;;;4933033;28;20455;-63
2021/05/23 06:35:37;;;;;;;2.63;1.05;;;13.30;99.90;;;;;;4931625;28;20114;-64
2021/05/23 06:38:06;;;;;;;1.77;1.10;;;13.40;99.90;;;;;;4931408;28;20055;-64
2021/05/23 06:40:33;;;;;;;3.78;1.25;;;13.40;99.90;;;;;;4930326;28;20110;-64
2021/05/23 06:43:00;;;;;;;2.58;0.93;;;13.50;99.90;;;;;;4932383;28;20052;-64
2021/05/23 06:45:27;;;;;;;4.70;1.15;;;13.60;99.90;;;;;;4932450;28;20048;-64
2021/05/23 06:47:54;;;;;;;3.70;1.05;;;13.60;99.90;;;;;;4930143;28;20371;-63
2021/05/23 06:50:21;;;;;;;3.42;1.50;;;13.70;99.90;;;;;;4932361;28;20125;-64
2021/05/23 06:52:48;;;;;;;7.05;1.40;;;13.70;99.90;;;;;;4931096;28;20062;-64
2021/05/23 06:55:15;;;;;;;3.17;1.02;;;13.60;99.90;;;;;;4931490;28;20075;-64
2021/05/23 06:57:43;;;;;;;3.17;1.67;;;13.50;99.90;;;;;;4930689;28;20063;-63
2021/05/23 07:00:11;;;;;;;3.83;0.90;;;13.50;99.90;;;;;;4930175;28;20079;-64
2021/05/23 07:02:38;;;;;;;4.30;1.20;;;13.40;99.90;;;;;;4930633;28;20055;-64
2021/05/23 07:05:05;;;;;;;2.20;0.95;;;13.40;99.90;;;;;;4931930;28;20666;-63
2021/05/23 07:07:32;;;;;;;3.00;1.17;;;13.50;99.90;;;;;;4930480;28;20047;-64
2021/05/23 07:10:00;;;;;;;1.95;1.23;;;13.60;99.90;;;;;;4917334;28;20417;-64
2021/05/23 07:12:27;;;;;;;1.55;0.85;;;13.80;99.90;;;;;;4914083;29;20074;-64
2021/05/23 07:14:55;;;;;;;3.35;1.20;;;14.00;99.90;;;;;;4914873;29;20082;-64
2021/05/23 07:17:22;;;;;;;2.55;1.45;;;14.00;99.90;;;;;;4914695;29;20055;-64
2021/05/23 07:19:49;;;;;;;1.80;1.10;;;14.00;99.90;;;;;;4912108;29;20055;-64
2021/05/23 07:22:16;;;;;;;3.60;1.08;;;13.90;99.90;;;;;;4915412;29;20059;-64
2021/05/23 07:24:43;;;;;;;5.40;1.10;;;13.90;99.90;;;;;;4916360;28;20062;-64
2021/05/23 07:27:10;;;;;;;3.65;1.95;;;14.00;99.90;;;;;;4916844;28;21411;-63
2021/05/23 07:29:37;;;;;;;1.80;1.25;;;14.00;99.90;;;;;;4914184;29;20139;-64
2021/05/23 07:32:04;;;;;;;2.97;1.15;;;14.00;99.90;;;;;;4913167;29;20125;-63
2021/05/23 07:34:31;;;;;;;4.03;1.60;;;14.00;99.90;;;;;;4915564;28;20074;-63
2021/05/23 07:36:58;;;;;;;2.42;1.00;;;14.20;99.90;;;;;;4915521;28;20079;-64
2021/05/23 07:39:25;;;;;;;2.50;0.95;;;14.30;99.90;;;;;;4916423;29;20056;-64
2021/05/23 07:41:55;;;;;;;2.13;0.93;;;14.40;99.90;;;;;;4916254;29;20090;-64
2021/05/23 07:44:21;;;;;;;1.30;0.73;;;14.50;99.90;;;;;;4916596;29;20123;-63
2021/05/23 07:46:48;;;;;;;1.08;0.60;;;14.70;99.90;;;;;;4917204;29;20059;-63
2021/05/23 07:49:18;;;;;;;3.55;0.68;;;14.80;99.90;;;;;;4916433;29;20051;-64
2021/05/23 07:51:45;;;;;;;3.35;0.70;;;14.80;99.90;;;;;;4913584;29;21948;-63
2021/05/23 07:54:13;;;;;;;4.88;1.33;;;14.80;99.90;;;;;;4915635;29;20220;-64
2021/05/23 07:56:41;;;;;;;2.67;0.82;;;14.70;99.90;;;;;;4917302;28;20871;-63
2021/05/23 07:59:08;;;;;;;1.45;0.70;;;14.70;99.90;;;;;;4915001;29;20051;-63
2021/05/23 08:01:35;;;;;;;11.55;1.10;;;14.60;99.90;;;;;;4916232;29;20101;-63
2021/05/23 08:04:03;;;;;;;3.55;1.02;;;14.60;99.90;;;;;;4914842;28;20510;-63
2021/05/23 08:06:33;;;;;;;3.58;1.05;;;14.50;99.90;;;;;;4914483;29;20146;-63
2021/05/23 08:09:00;;;;;;;4.88;1.02;;;14.40;99.90;;;;;;4921823;29;20058;-64
2021/05/23 08:11:27;;;;;;;3.15;1.10;;;14.50;99.90;;;;;;4930330;28;20063;-64
2021/05/23 08:13:54;;;;;;;3.63;1.13;;;14.40;99.90;;;;;;4928354;28;20881;-64
2021/05/23 08:16:21;;;;;;;1.00;0.68;;;14.40;99.90;;;;;;4929616;28;20193;-63
2021/05/23 08:18:48;;;;;;;2.75;1.13;;;14.40;99.90;;;;;;4930112;28;20051;-63
2021/05/23 08:21:15;;;;;;;1.83;1.08;;;14.50;99.90;;;;;;4911491;29;20493;-64
2021/05/23 08:23:43;;;;;;;0.52;0.52;;;14.70;99.90;;;;;;4925676;28;20094;-64
2021/05/23 08:26:10;;;;;;;3.13;1.05;;;14.60;99.90;;;;;;4925251;28;20054;-64
2021/05/23 08:28:38;;;;;;;4.15;0.63;;;14.70;99.90;;;;;;4929884;28;20093;-63
2021/05/23 08:31:05;;;;;;;3.55;0.80;;;14.90;99.90;;;;;;4929436;28;20055;-63
2021/05/23 08:33:32;;;;;;;3.38;1.52;;;14.90;99.90;;;;;;4930334;28;20083;-63
2021/05/23 08:36:00;;;;;;;3.97;0.82;;;15.10;99.90;;;;;;4928138;28;20081;-63
2021/05/23 08:38:27;;;;;;;1.45;0.60;;;15.10;99.90;;;;;;4930910;28;20055;-64
2021/05/23 08:41:02;;;;;;;1.08;0.57;;;14.90;99.90;;;;;;4931939;28;20066;-63
2021/05/23 08:43:29;;;;;;;3.85;1.63;;;14.80;99.90;;;;;;4930987;28;20051;-63
2021/05/23 08:45:58;;;;;;;1.55;0.70;;;14.80;99.90;;;;;;4927043;28;20216;-64
2021/05/23 08:48:25;;;;;;;2.42;1.08;;;15.00;99.90;;;;;;4930113;28;20123;-63
2021/05/23 08:50:54;;;;;;;3.83;0.93;;;15.20;99.90;;;;;;4930743;29;20075;-63
2021/05/23 08:53:22;;;;;;;1.23;0.60;;;15.40;99.90;;;;;;4930521;28;20047;-64
2021/05/23 08:55:49;;;;;;;3.15;0.68;;;15.60;99.90;;;;;;4927098;28;20343;-64
2021/05/23 08:58:15;;;;;;;1.40;0.63;;;15.40;99.90;;;;;;4929720;28;20374;-64
2021/05/23 09:00:42;;;;;;;1.67;0.60;;;15.30;99.90;;;;;;4930647;28;20659;-64
2021/05/23 09:03:15;;;;;;;2.88;1.88;;;15.30;99.90;;;;;;4941823;28;20454;-64
2021/05/23 09:05:56;;;;;;;0.30;0.30;;;15.30;99.90;;;;;;4930367;28;20465;-64
2021/05/23 09:08:26;;;;;;;1.65;0.40;;;15.20;99.90;;;;;;4926591;28;20396;-64
2021/05/23 09:11:06;;;;;;;0.35;0.35;;;15.20;99.90;;;;;;4928972;29;20409;-63
2021/05/23 09:13:38;;;;;;;0.65;0.65;;;15.10;99.90;;;;;;4929961;28;20051;-63
2021/05/23 09:16:10;;;;;;;1.02;0.65;;;15.00;99.90;;;;;;4929183;28;20055;-63
2021/05/23 09:18:46;;;;;;;1.15;0.40;;;15.10;99.90;;;;;;4928518;28;20491;-64
2021/05/23 09:21:17;;;;;;;0.98;0.40;;;15.10;99.90;;;;;;4929921;28;20055;-64
2021/05/23 09:23:49;;;;;;;0.70;0.60;;;15.00;99.90;;;;;;4926831;28;20209;-64
2021/05/23 09:26:29;;;;;;;1.08;0.73;;;15.20;99.90;;;;;;4929520;28;20119;-64
2021/05/23 09:29:12;;;;;;;0.90;0.90;;;15.40;99.90;;;;;;4922319;28;20051;-64
2021/05/23 09:31:39;;;;;;;5.13;1.08;;;15.20;99.90;;;;;;4928833;28;20074;-64
2021/05/23 09:34:08;;;;;;;0.80;0.80;;;14.90;99.90;;;;;;4925763;28;20102;-64
2021/05/23 09:36:45;;;;;;;0.95;0.90;;;14.70;99.90;;;;;;4926825;28;21494;-64
2021/05/23 09:39:12;;;;;;;0.60;0.60;;;14.60;99.90;;;;;;4923384;28;20051;-64
2021/05/23 09:41:39;;;;;;;0.40;0.40;;;14.50;99.90;;;;;;4928192;28;20051;-64
2021/05/23 09:44:20;;;;;;;0.73;0.73;;;14.40;99.90;;;;;;4927798;28;20051;-64
2021/05/23 09:47:02;;;;;;;1.00;0.70;;;14.40;99.90;;;;;;4931868;28;21065;-63
2021/05/23 09:49:32;;;;;;;0.52;0.52;;;14.30;99.90;;;;;;4934196;28;20143;-64
2021/05/23 09:52:00;;;;;;;1.52;0.80;;;14.30;99.90;;;;;;4921497;28;20055;-64
2021/05/23 09:54:29;;;;;;;4.03;0.80;;;14.20;99.90;;;;;;4919728;28;20497;-64
2021/05/23 09:56:57;;;;;;;3.08;1.50;;;14.00;99.90;;;;;;4931273;28;20063;-63
2021/05/23 09:59:28;;;;;;;2.40;1.52;;;13.90;99.90;;;;;;4932361;28;20043;-63
2021/05/23 10:02:09;;;;;;;4.37;3.03;;;13.70;99.90;;;;;;4929028;28;20054;-63
2021/05/23 10:04:38;;;;;;;3.67;2.08;;;13.60;99.90;;;;;;4932843;28;20070;-63
2021/05/23 10:07:12;;;;;;;4.87;2.50;;;13.50;99.90;;;;;;4930782;28;20063;-63
2021/05/23 10:09:40;;;;;;;4.05;2.47;;;13.30;99.90;;;;;;4924284;28;20340;-62
2021/05/23 10:12:11;;;;;;;6.68;3.35;;;13.10;99.90;;;;;;4929872;28;20051;-63
2021/05/23 10:14:40;;;;;;;5.78;3.15;;;13.10;99.90;;;;;;4928991;28;20099;-63
2021/05/23 10:17:08;;;;;;;4.20;3.80;;;13.10;99.90;;;;;;4928048;28;20139;-62
2021/05/23 10:19:36;;;;;;;7.28;5.20;;;13.30;99.90;;;;;;4927073;28;20837;-63
2021/05/23 10:22:05;;;;;;;8.00;4.10;;;13.30;99.90;;;;;;4929270;28;20079;-63
2021/05/23 10:24:43;;;;;;;5.07;4.55;;;13.30;99.90;;;;;;4930182;28;20107;-63
2021/05/23 10:27:14;;;;;;;8.32;4.85;;;13.50;99.90;;;;;;4929817;28;20378;-63
2021/05/23 10:30:01;;;;;;;5.40;4.18;;;13.60;99.90;;;;;;4930842;28;20054;-63
2021/05/23 10:32:37;;;;;;;9.10;4.03;;;13.70;99.90;;;;;;4931689;28;20630;-63
2021/05/23 10:35:22;;;;;;;6.43;3.70;;;13.60;99.90;;;;;;4930894;28;20058;-63
2021/05/23 10:37:51;;;;;;;6.45;4.03;;;13.60;99.90;;;;;;4928775;28;20738;-63
2021/05/23 10:40:31;;;;;;;4.75;4.00;;;13.70;99.90;;;;;;4929797;28;20054;-63
2021/05/23 10:43:00;;;;;;;5.20;3.42;;;13.60;99.90;;;;;;4923523;28;20562;-63
2021/05/23 10:45:32;;;;;;;10.93;5.05;;;13.60;99.90;;;;;;4922531;28;20056;-63
2021/05/23 10:48:15;;;;;;;5.50;3.63;;;13.60;99.90;;;;;;4924962;28;20055;-63
2021/05/23 10:50:44;;;;;;;9.90;3.80;;;13.80;99.90;;;;;;4930320;28;20972;-63
2021/05/23 10:53:12;;;;;;;5.28;3.40;;;13.90;99.90;;;;;;4931324;28;20138;-63
2021/05/23 10:55:52;;;;;;;5.28;3.45;;;13.90;99.90;;;;;;4930317;28;20075;-63
2021/05/23 10:58:23;;;;;;;5.68;3.20;;;14.00;99.90;;;;;;4936651;28;20118;-63
2021/05/23 11:00:55;;;;;;;7.60;3.53;;;14.10;99.90;;;;;;4931565;28;20055;-63
2021/05/23 11:03:25;;;;;;;5.57;3.55;;;13.90;99.90;;;;;;4928279;28;20665;-63
2021/05/23 11:06:04;;;;;;;10.68;4.05;;;13.90;99.90;;;;;;4923818;28;20047;-63
2021/05/23 11:08:33;;;;;;;11.57;4.60;;;13.70;99.90;;;;;;4930942;28;20075;-63
2021/05/23 11:11:00;;;;;;;10.75;3.92;;;13.70;99.90;;;;;;4924220;28;21228;-64
2021/05/23 11:13:29;;;;;;;4.10;3.72;;;13.80;99.90;;;;;;4929719;28;20655;-63
2021/05/23 11:16:08;;;;;;;5.60;3.53;;;13.90;99.90;;;;;;4929385;28;20106;-63
2021/05/23 11:18:35;;;;;;;3.97;3.22;;;14.10;99.90;;;;;;4930517;28;21016;-63
2021/05/23 11:21:06;;;;;;;5.38;2.75;;;14.40;99.90;;;;;;4945027;28;20051;-63
2021/05/23 11:23:48;;;;;;;3.50;3.20;;;14.50;99.90;;;;;;4926538;28;20067;-63
2021/05/23 11:26:16;;;;;;;4.32;2.70;;;14.60;99.90;;;;;;4929763;28;20413;-63
2021/05/23 11:28:48;;;;;;;4.72;2.88;;;14.90;99.90;;;;;;4929657;28;20047;-63
2021/05/23 11:31:24;;;;;;;5.65;2.97;;;15.10;99.90;;;;;;4923727;28;20112;-63
2021/05/23 11:33:52;;;;;;;3.50;2.40;;;15.30;99.90;;;;;;4923314;28;20113;-63
2021/05/23 11:36:24;;;;;;;3.88;3.47;;;15.50;99.90;;;;;;4920402;28;20055;-63
2021/05/23 11:38:57;;;;;;;3.45;1.35;;;15.80;99.90;;;;;;4919172;28;20423;-63
2021/05/23 11:41:43;;;;;;;8.20;2.20;;;16.10;99.90;;;;;;4919501;28;20082;-63
2021/05/23 11:44:13;;;;;;;3.80;2.28;;;16.00;99.90;;;;;;4929587;28;20230;-64
2021/05/23 11:46:42;;;;;;;2.97;1.60;;;16.00;99.90;;;;;;4927335;28;20146;-63
2021/05/23 11:49:21;;;;;;;4.90;1.67;;;15.80;99.90;;;;;;4927764;28;20047;-62
2021/05/23 11:51:48;;;;;;;1.65;1.10;;;15.50;99.90;;;;;;4924679;28;20059;-62
2021/05/23 11:54:16;;;;;;;1.85;1.30;;;15.50;99.90;;;;;;4926606;28;20142;-63
2021/05/23 11:56:43;;;;;;;3.13;1.50;;;15.40;99.90;;;;;;4925489;28;20102;-63
2021/05/23 11:59:11;;;;;;;5.03;1.90;;;15.50;99.90;;;;;;4930105;28;20059;-63
2021/05/23 12:01:48;;;;;;;3.15;1.90;;;15.70;99.90;;;;;;4928917;28;20066;-63
2021/05/23 12:04:16;;;;;;;3.90;2.22;;;15.60;99.90;;;;;;4931503;28;20777;-63
2021/05/23 12:06:48;;;;;;;4.00;1.40;;;15.50;99.90;;;;;;4925801;28;20632;-65
2021/05/23 12:09:25;;;;;;;6.38;2.65;;;15.70;99.90;;;;;;4928830;28;20188;-65
2021/05/23 12:11:52;;;;;;;7.25;3.40;;;15.60;99.90;;;;;;4927640;28;20062;-63
2021/05/23 12:14:30;;;;;;;5.72;1.30;;;15.60;99.90;;;;;;4926934;28;20063;-63
2021/05/23 12:17:17;;;;;;;3.67;1.52;;;15.40;99.90;;;;;;4928599;28;20069;-63
2021/05/23 12:19:58;;;;;;;4.00;1.58;;;15.50;99.90;;;;;;4926743;28;20146;-64
2021/05/23 12:22:35;;;;;;;2.38;1.65;;;15.50;99.90;;;;;;4926553;28;20087;-63
2021/05/23 12:25:06;;;;;;;;;;;15.50;99.90;;;;;;4928710;28;20786;-64
2021/05/23 12:27:53;;;;;;;5.07;1.45;;;15.00;99.90;;;;;;4924495;28;20566;-63
2021/05/23 12:30:25;;;;;;;3.70;1.65;;;14.90;99.90;;;;;;4929096;28;20127;-63
2021/05/23 12:32:58;;;;;;;3.03;1.58;;;14.80;99.90;;;;;;4926943;28;21492;-64
2021/05/23 12:35:26;;;;;;;1.38;1.08;;;15.40;99.90;;;;;;4924058;28;20478;-63
2021/05/23 12:37:59;;;;;;;2.15;1.45;;;15.60;99.90;;;;;;4926894;28;20146;-63
2021/05/23 12:40:40;;;;;;;4.43;2.38;;;15.70;99.90;;;;;;4930330;28;20055;-63
2021/05/23 12:43:18;;;;;;;4.75;1.50;;;15.60;99.90;;;;;;4925916;28;20376;-64
2021/05/23 12:46:07;;;;;;;4.03;1.95;;;15.60;99.90;;;;;;4927361;28;20054;-62
2021/05/23 12:48:37;;;;;;;2.45;1.80;;;15.60;99.90;;;;;;4922981;28;21026;-62
2021/05/23 12:51:10;;;;;;;;;;;15.50;99.90;;;;;;4930442;28;20162;-64
2021/05/23 12:53:44;;;;;;;2.72;1.45;;;15.50;99.90;;;;;;4926786;28;19966;-63
2021/05/23 12:56:16;;;;;;;3.33;1.90;;;15.30;99.90;;;;;;4924820;28;21167;-63
2021/05/23 12:58:50;;;;;;;2.38;1.58;;;15.10;99.90;;;;;;4928434;28;20106;-64
2021/05/23 13:01:22;;;;;;;7.63;2.55;;;14.90;99.90;;;;;;4905267;28;20059;-64
2021/05/23 13:03:54;;;;;;;5.05;2.42;;;14.60;99.90;;;;;;4926465;28;20103;-63